Time;durP1;ratioP1;P1;durP2;ratioP2;P2;SDS_P1;SDS_P2;PMS_P1;PMS_P2;Temp;Humidity;BMP_temperature;BMP_pressure;BME280_temperature;BME280_humidity;BME280_pressure;Samples;Min_cycle;Max_cycle;Signal;HPM_P1;HPM_P2
2023/01/25 00:01:57;;;;;;;41.40;23.47;;;;;;;;;;5023133;28;20116;-84
2023/01/25 00:04:42;;;;;;;43.10;22.77;;;;;;;;;;5036286;28;20503;-84
2023/01/25 00:07:26;;;;;;;46.20;25.00;;;;;;;;;;5036869;28;20029;-84
2023/01/25 00:10:11;;;;;;;44.03;25.37;;;;;;;;;;5039042;28;20040;-84
2023/01/25 00:12:56;;;;;;;45.10;25.07;;;;;;;;;;5036815;28;20052;-84
2023/01/25 00:15:40;;;;;;;48.77;26.07;;;;;;;;;;5051522;28;20500;-84
2023/01/25 00:18:25;;;;;;;46.27;26.00;;;;;;;;;;5036778;28;20048;-84
2023/01/25 00:21:12;;;;;;;41.60;23.83;;;;;;;;;;5022980;28;20091;-84
2023/01/25 00:23:57;;;;;;;42.17;22.50;;;;;;;;;;5038220;28;20060;-84
2023/01/25 00:26:45;;;;;;;49.60;24.97;;;0.60;99.90;;;;;;5051396;28;20036;-84
2023/01/25 00:29:30;;;;;;;46.00;24.80;;;;;;;;;;5036664;28;20036;-88
2023/01/25 00:32:14;;;;;;;46.10;24.90;;;;;;;;;;5022602;28;20040;-84
2023/01/25 00:34:59;;;;;;;46.33;23.83;;;;;;;;;;5036862;28;20048;-84
2023/01/25 00:37:46;;;;;;;47.37;24.80;;;;;;;;;;5050944;28;20039;-84
2023/01/25 00:40:31;;;;;;;52.47;27.13;;;;;;;;;;5051531;28;20079;-86
2023/01/25 00:43:15;;;;;;;46.13;26.23;;;;;;;;;;5036907;28;20099;-84
2023/01/25 00:46:00;;;;;;;48.37;24.77;;;;;;;;;;5020282;28;20091;-84
2023/01/25 00:48:45;;;;;;;47.43;25.57;;;;;;;;;;5036120;28;20112;-83
2023/01/25 00:51:29;;;;;;;52.63;26.33;;;;;;;;;;5038204;28;20040;-83
2023/01/25 00:54:14;;;;;;;47.23;25.13;;;;;;;;;;5055085;28;20160;-84
2023/01/25 00:56:58;;;;;;;47.50;24.93;;;;;;;;;;5026026;28;20095;-84
2023/01/25 00:59:43;;;;;;;47.33;24.50;;;;;;;;;;5054718;28;20087;-84
2023/01/25 01:02:30;;;;;;;48.20;26.33;;;;;;;;;;5055443;28;20048;-83
2023/01/25 01:05:14;;;;;;;48.37;26.03;;;;;;;;;;5055218;28;20040;-83
2023/01/25 01:07:59;;;;;;;51.03;26.50;;;;;;;;;;5030242;28;20089;-83
2023/01/25 01:10:43;;;;;;;48.33;25.97;;;;;;;;;;5043243;28;20117;-83
2023/01/25 01:13:29;;;;;;;52.13;26.70;;;0.60;99.90;;;;;;5041340;28;20111;-84
2023/01/25 01:16:14;;;;;;;54.20;26.80;;;;;;;;;;5054886;28;20114;-84
2023/01/25 01:18:58;;;;;;;55.57;28.27;;;;;;;;;;5039474;28;20039;-84
2023/01/25 01:21:43;;;;;;;52.70;27.27;;;;;;;;;;5054005;28;20033;-84
2023/01/25 01:24:27;;;;;;;50.53;26.60;;;;;;;;;;5039912;28;20039;-84
2023/01/25 01:27:11;;;;;;;54.13;26.27;;;;;;;;;;5025613;28;20098;-84
2023/01/25 01:29:56;;;;;;;55.77;28.87;;;;;;;;;;5054113;28;20094;-84
2023/01/25 01:32:41;;;;;;;51.07;27.67;;;;;;;;;;5048142;28;20057;-86
2023/01/25 01:35:25;;;;;;;50.77;27.90;;;;;;;;;;5049575;28;20043;-83
2023/01/25 01:38:10;;;;;;;53.33;28.23;;;;;;;;;;5054599;28;20064;-83
2023/01/25 01:40:54;;;;;;;50.23;28.50;;;;;;;;;;5053952;28;20052;-83
2023/01/25 01:43:39;;;;;;;52.87;27.23;;;;;;;;;;5039308;28;20048;-84
2023/01/25 01:46:36;;;;;;;56.70;30.57;;;0.60;99.90;;;;;;5012988;28;20130;-83
2023/01/25 01:49:26;;;;;;;59.73;29.77;;;0.50;99.90;;;;;;5054251;28;20497;-84
2023/01/25 01:52:16;;;;;;;60.23;30.77;;;0.60;99.90;;;;;;5054073;28;20401;-84
2023/01/25 01:55:13;;;;;;;58.40;29.37;;;0.60;99.90;;;;;;5038363;28;20322;-84
2023/01/25 01:57:58;;;;;;;61.30;30.07;;;0.60;99.90;;;;;;5039512;28;20043;-86
2023/01/25 02:00:43;;;;;;;57.20;29.57;;;;;;;;;;5053984;28;20497;-88
2023/01/25 02:03:30;;;;;;;57.43;29.03;;;0.60;99.90;;;;;;5038804;28;20040;-84
2023/01/25 02:06:14;;;;;;;61.77;31.53;;;;;;;;;;5052849;28;20040;-84
2023/01/25 02:09:00;;;;;;;58.73;29.90;;;0.50;99.90;;;;;;5044412;28;20110;-84
2023/01/25 02:11:45;;;;;;;56.07;27.67;;;;;;;;;;5038463;28;20035;-87
2023/01/25 02:14:30;;;;;;;54.47;28.07;;;;;;;;;;5053481;28;20087;-84
2023/01/25 02:17:15;;;;;;;60.40;31.77;;;;;;;;;;5053848;28;20047;-84
2023/01/25 02:20:25;;;;;;;64.30;30.97;;;0.50;99.90;;;;;;5037965;28;20384;-85
2023/01/25 02:23:26;;;;;;;56.03;29.00;;;;;;;;;;5037750;28;20064;-84
2023/01/25 02:26:11;;;;;;;65.67;31.23;;;;;;;;;;5038342;28;20409;-84
2023/01/25 02:29:04;;;;;;;57.60;30.37;;;0.40;99.90;;;;;;5053090;28;20389;-83
2023/01/25 02:31:51;;;;;;;61.38;30.67;;;;;;;;;;5038081;28;20059;-84
2023/01/25 02:34:35;;;;;;;61.77;32.03;;;;;;;;;;5053556;28;20043;-84
2023/01/25 02:37:20;;;;;;;58.00;29.17;;;;;;;;;;5020695;28;20099;-84
2023/01/25 02:40:04;;;;;;;63.50;31.70;;;0.20;99.90;;;;;;5037435;28;20040;-83
2023/01/25 02:42:49;;;;;;;65.67;32.93;;;;;;;;;;5024072;28;20047;-87
2023/01/25 02:45:33;;;;;;;63.60;31.93;;;;;;;;;;5038244;28;20087;-84
2023/01/25 02:48:18;;;;;;;62.70;31.20;;;;;;;;;;5053328;28;20043;-83
2023/01/25 02:51:07;;;;;;;63.57;32.13;;;0.40;99.90;;;;;;5052530;28;20102;-84
2023/01/25 02:53:51;;;;;;;63.47;31.80;;;;;;;;;;5052771;28;20051;-86
2023/01/25 02:56:36;;;;;;;57.00;28.90;;;;;;;;;;5038126;28;20079;-83
2023/01/25 02:59:21;;;;;;;61.23;31.37;;;;;;;;;;5037951;28;20044;-84
2023/01/25 03:02:06;;;;;;;56.70;30.40;;;;;;;;;;5043077;28;20036;-83
2023/01/25 03:04:51;;;;;;;61.40;31.00;;;;;;;;;;5052807;28;20120;-86
2023/01/25 03:07:35;;;;;;;61.43;30.97;;;;;;;;;;5037533;28;20102;-84
2023/01/25 03:10:20;;;;;;;64.33;31.97;;;;;;;;;;5037996;28;20071;-84
2023/01/25 03:13:04;;;;;;;66.70;31.70;;;;;;;;;;5022729;28;20146;-84
2023/01/25 03:15:49;;;;;;;62.37;31.27;;;;;;;;;;5037670;28;20126;-84
2023/01/25 03:18:34;;;;;;;62.30;32.57;;;0.30;99.90;;;;;;5034709;28;20106;-84
2023/01/25 03:21:19;;;;;;;64.47;31.00;;;;;;;;;;5037077;28;20067;-84
2023/01/25 03:24:04;;;;;;;68.13;32.87;;;;;;;;;;5036911;28;20094;-84
2023/01/25 03:29:52;;;;;;;61.77;32.37;;;0.40;99.90;;;;;;5043878;28;20035;-83
2023/01/25 03:32:37;;;;;;;62.67;32.43;;;;;;;;;;5037292;28;20048;-84
2023/01/25 03:35:22;;;;;;;62.10;32.77;;;;;;;;;;5023159;28;20099;-84
2023/01/25 03:38:07;;;;;;;62.40;31.93;;;;;;;;;;5051565;28;20040;-84
2023/01/25 03:40:51;;;;;;;61.13;30.30;;;;;;;;;;5037270;28;20036;-84
2023/01/25 03:43:35;;;;;;;59.77;32.33;;;;;;;;;;5037289;28;20044;-83
2023/01/25 03:46:20;;;;;;;66.83;32.40;;;;;;;;;;5036756;28;20078;-83
2023/01/25 03:49:05;;;;;;;64.53;32.03;;;;;;;;;;5022673;28;20043;-85
2023/01/25 03:51:49;;;;;;;64.00;31.47;;;;;;;;;;5030735;28;20098;-84
2023/01/25 03:54:34;;;;;;;64.73;32.17;;;;;;;;;;5034695;28;20072;-83
2023/01/25 03:57:19;;;;;;;61.93;32.10;;;;;;;;;;5051280;28;20060;-84
2023/01/25 04:00:03;;;;;;;66.57;34.53;;;0.00;99.90;;;;;;5036513;28;20036;-84
2023/01/25 04:02:48;;;;;;;68.57;34.67;;;;;;;;;;5021444;28;20068;-83
2023/01/25 04:05:33;;;;;;;62.23;32.00;;;;;;;;;;5050820;28;20094;-84
2023/01/25 04:08:18;;;;;;;67.33;34.27;;;;;;;;;;5036555;28;20040;-84
2023/01/25 04:11:03;;;;;;;67.37;34.03;;;;;;;;;;5039336;28;20039;-88
2023/01/25 04:13:48;;;;;;;66.27;31.13;;;;;;;;;;5036687;28;20048;-84
2023/01/25 04:16:34;;;;;;;65.47;32.90;;;;;;;;;;5022828;28;20052;-83
2023/01/25 04:19:19;;;;;;;64.87;32.83;;;;;;;;;;5036137;28;20059;-84
2023/01/25 04:22:03;;;;;;;66.63;33.07;;;;;;;;;;5042166;28;20444;-87
2023/01/25 04:24:48;;;;;;;66.03;32.43;;;;;;;;;;5037631;28;20072;-84
2023/01/25 04:27:32;;;;;;;64.60;33.00;;;;;;;;;;5023765;28;20068;-84
2023/01/25 04:30:18;;;;;;;65.93;33.23;;;;;;;;;;5047128;28;20107;-84
2023/01/25 04:33:03;;;;;;;67.83;34.00;;;;;;;;;;5040744;28;20396;-84
2023/01/25 04:35:48;;;;;;;69.23;32.57;;;;;;;;;;5054550;28;20122;-84
2023/01/25 04:38:33;;;;;;;69.07;33.90;;;;;;;;;;5030668;28;20555;-84
2023/01/25 04:41:17;;;;;;;63.73;32.40;;;;;;;;;;5055005;28;20038;-84
2023/01/25 04:44:01;;;;;;;64.63;34.77;;;;;;;;;;5040712;28;20044;-84
2023/01/25 04:46:47;;;;;;;69.60;33.27;;;;;;;;;;5055809;28;20043;-84
2023/01/25 04:49:32;;;;;;;67.97;34.43;;;;;;;;;;5055174;28;20577;-84
2023/01/25 04:52:16;;;;;;;65.23;32.47;;;;;;;;;;5039483;28;20116;-83
2023/01/25 04:55:01;;;;;;;65.67;34.33;;;;;;;;;;5034128;28;20119;-85
2023/01/25 04:57:45;;;;;;;63.83;33.50;;;;;;;;;;5034541;28;20173;-83
2023/01/25 05:00:31;;;;;;;69.13;33.50;;;;;;;;;;5034804;28;20041;-83
2023/01/25 05:03:15;;;;;;;65.40;32.07;;;;;;;;;;5034717;28;20094;-84
2023/01/25 05:06:00;;;;;;;64.57;33.43;;;;;;;;;;5035270;28;20040;-83
2023/01/25 05:08:45;;;;;;;68.27;32.60;;;;;;;;;;5034173;28;20071;-84
2023/01/25 05:11:29;;;;;;;65.10;31.97;;;;;;;;;;5034753;28;20500;-84
2023/01/25 05:14:14;;;;;;;66.87;33.00;;;;;;;;;;5019663;28;20476;-84
2023/01/25 05:16:58;;;;;;;63.70;32.30;;;;;;;;;;5034021;28;20401;-84
2023/01/25 05:19:43;;;;;;;59.63;29.00;;;;;;;;;;5034326;28;20048;-83
2023/01/25 05:22:27;;;;;;;56.60;30.03;;;;;;;;;;5033599;28;20032;-83
2023/01/25 05:28:17;;;;;;;54.13;27.57;;;;;;;;;;5033216;28;20045;-84
2023/01/25 05:31:04;;;;;;;56.97;28.87;;;-0.20;99.90;;;;;;5021675;28;20040;-84
2023/01/25 05:33:49;;;;;;;59.67;30.43;;;;;;;;;;5019595;28;20138;-84
2023/01/25 05:36:34;;;;;;;55.60;28.63;;;;;;;;;;5032479;28;20228;-84
2023/01/25 05:39:18;;;;;;;53.10;28.27;;;;;;;;;;5019132;28;20043;-84
2023/01/25 05:42:03;;;;;;;56.63;30.13;;;;;;;;;;5019479;28;20036;-85
2023/01/25 05:44:47;;;;;;;55.80;29.37;;;;;;;;;;5022768;28;20039;-84
2023/01/25 05:47:32;;;;;;;51.53;26.87;;;;;;;;;;5018761;28;20096;-83
2023/01/25 05:50:16;;;;;;;50.70;28.63;;;;;;;;;;5021626;28;21330;-88
2023/01/25 05:53:00;;;;;;;51.97;26.87;;;;;;;;;;5019070;28;20112;-84
2023/01/25 05:55:45;;;;;;;48.13;26.60;;;;;;;;;;5031396;28;20056;-85
2023/01/25 05:58:30;;;;;;;49.97;25.83;;;;;;;;;;5046452;28;20043;-83
2023/01/25 06:01:14;;;;;;;49.97;28.17;;;;;;;;;;5009294;28;20084;-84
2023/01/25 06:03:59;;;;;;;53.27;28.77;;;;;;;;;;5040349;28;20544;-84
2023/01/25 06:06:43;;;;;;;48.67;25.90;;;;;;;;;;5053487;28;20488;-84
2023/01/25 06:09:28;;;;;;;52.20;28.40;;;;;;;;;;5038591;28;20048;-84
2023/01/25 06:12:12;;;;;;;52.30;29.03;;;;;;;;;;5043750;28;20041;-83
2023/01/25 06:14:57;;;;;;;51.87;29.03;;;;;;;;;;5028085;28;20048;-83
2023/01/25 06:17:41;;;;;;;50.90;27.93;;;;;;;;;;5021754;28;20051;-83
2023/01/25 06:20:26;;;;;;;53.33;28.73;;;;;;;;;;5028299;28;20036;-83
2023/01/25 06:23:10;;;;;;;54.87;28.50;;;;;;;;;;5038887;28;20504;-83
2023/01/25 06:26:02;;;;;;;56.43;28.43;;;-0.40;99.90;;;;;;5024717;28;20048;-83
2023/01/25 06:28:47;;;;;;;55.40;28.73;;;;;;;;;;5020385;28;20044;-84
2023/01/25 06:31:31;;;;;;;49.47;26.50;;;;;;;;;;5028577;28;20036;-84
2023/01/25 06:34:16;;;;;;;52.80;28.20;;;;;;;;;;5023368;28;20048;-84
2023/01/25 06:37:00;;;;;;;52.67;28.33;;;;;;;;;;5038695;28;20051;-84
2023/01/25 06:39:45;;;;;;;52.50;27.17;;;;;;;;;;5034297;28;20492;-83
2023/01/25 06:42:30;;;;;;;53.20;27.17;;;;;;;;;;5036168;28;20121;-84
2023/01/25 06:45:14;;;;;;;52.17;26.20;;;;;;;;;;5046636;28;20230;-84
2023/01/25 06:47:59;;;;;;;50.83;26.70;;;;;;;;;;5033173;28;20159;-85
2023/01/25 06:50:44;;;;;;;53.20;28.70;;;;;;;;;;5009200;28;20460;-84
2023/01/25 06:53:31;;;;;;;52.93;27.23;;;-0.30;99.90;;;;;;5032953;28;20065;-84
2023/01/25 06:56:19;;;;;;;57.77;28.70;;;-0.30;99.90;;;;;;5035207;28;20060;-84
2023/01/25 06:59:04;;;;;;;56.63;28.70;;;;;;;;;;5041179;28;20472;-84
2023/01/25 07:01:48;;;;;;;54.20;27.77;;;;;;;;;;5037710;28;20036;-83
2023/01/25 07:04:33;;;;;;;51.33;27.93;;;-0.10;99.90;;;;;;5040659;28;20179;-83
2023/01/25 07:07:17;;;;;;;55.57;29.63;;;;;;;;;;5034400;28;20040;-84
2023/01/25 07:10:02;;;;;;;55.47;28.90;;;;;;;;;;5052794;28;20398;-84
2023/01/25 07:12:46;;;;;;;52.77;28.53;;;;;;;;;;5037292;28;20114;-83
2023/01/25 07:15:31;;;;;;;49.93;26.73;;;;;;;;;;5037059;28;20056;-83
2023/01/25 07:18:15;;;;;;;60.00;29.87;;;;;;;;;;5052842;28;20120;-83
2023/01/25 07:21:13;;;;;;;54.07;28.43;;;-0.30;99.90;;;;;;5052874;28;20460;-83
2023/01/25 07:24:02;;;;;;;55.33;27.33;;;-0.40;99.90;;;;;;5038327;28;20421;-83
2023/01/25 07:26:48;;;;;;;55.57;27.97;;;;;;;;;;5052097;28;20043;-84
2023/01/25 07:29:33;;;;;;;57.03;28.57;;;;;;;;;;5023385;28;20044;-84
2023/01/25 07:32:17;;;;;;;46.17;24.53;;;;;;;;;;5052035;28;20040;-84
2023/01/25 07:35:02;;;;;;;52.30;27.53;;;;;;;;;;5020512;28;20106;-85
2023/01/25 07:37:47;;;;;;;56.83;28.30;;;;;;;;;;5022322;28;20740;-83
2023/01/25 07:40:31;;;;;;;57.10;28.50;;;;;;;;;;5045866;28;20036;-84
2023/01/25 07:43:16;;;;;;;60.17;29.43;;;;;;;;;;5034466;28;20044;-84
2023/01/25 07:46:10;;;;;;;59.77;30.47;;;-0.40;99.90;;;;;;5047152;28;20068;-84
2023/01/25 07:48:57;;;;;;;54.93;27.53;;;;;;;;;;5038145;28;20047;-83
2023/01/25 07:51:42;;;;;;;56.17;28.00;;;;;;;;;;5044346;28;20032;-83
2023/01/25 07:54:26;;;;;;;56.80;28.13;;;;;;;;;;5022900;28;20051;-84
2023/01/25 07:57:10;;;;;;;60.53;32.17;;;;;;;;;;5036880;28;20036;-84
2023/01/25 07:59:55;;;;;;;65.10;31.07;;;;;;;;;;5051258;28;20491;-85
2023/01/25 08:02:40;;;;;;;51.73;27.03;;;;;;;;;;5036575;28;20067;-83
2023/01/25 08:05:24;;;;;;;56.20;28.37;;;;;;;;;;5037872;28;20044;-83
2023/01/25 08:08:09;;;;;;;56.07;28.77;;;;;;;;;;5051937;28;20071;-85
2023/01/25 08:10:53;;;;;;;56.37;28.17;;;;;;;;;;5026865;28;20931;-84
2023/01/25 08:13:38;;;;;;;54.37;28.77;;;;;;;;;;5020470;28;20155;-84
2023/01/25 08:16:24;;;;;;;55.27;28.70;;;;;;;;;;5007348;28;20111;-84
2023/01/25 08:19:10;;;;;;;59.40;29.20;;;;;;;;;;5043022;28;20401;-84
2023/01/25 08:21:54;;;;;;;61.13;29.13;;;;;;;;;;5046966;28;20324;-83
2023/01/25 08:24:39;;;;;;;61.83;27.33;;;;;;;;;;5051287;28;20044;-84
2023/01/25 08:27:23;;;;;;;57.27;29.97;;;;;;;;;;5032105;28;20049;-83
2023/01/25 08:30:08;;;;;;;59.30;28.47;;;-0.40;99.90;;;;;;5034409;28;20044;-82
2023/01/25 08:32:53;;;;;;;64.67;29.47;;;;;;;;;;5036126;28;20047;-83
2023/01/25 08:35:37;;;;;;;62.27;29.10;;;;;;;;;;5038154;28;20036;-86
2023/01/25 08:38:22;;;;;;;60.17;29.43;;;;;;;;;;5051642;28;20063;-83
2023/01/25 08:41:09;;;;;;;60.50;30.17;;;-0.20;99.90;;;;;;5036538;28;20039;-83
2023/01/25 08:43:54;;;;;;;64.27;31.43;;;-0.30;99.90;;;;;;5035887;28;20036;-83
2023/01/25 08:46:39;;;;;;;64.43;31.17;;;;;;;;;;5018485;28;20492;-84
2023/01/25 08:49:25;;;;;;;62.97;28.90;;;;;;;;;;5034339;28;20410;-83
2023/01/25 08:52:13;;;;;;;60.20;30.77;;;;;;;;;;5036885;28;20055;-84
2023/01/25 08:54:58;;;;;;;62.20;29.30;;;;;;;;;;5051012;28;20136;-83
2023/01/25 08:57:43;;;;;;;59.87;28.50;;;;;;;;;;5015229;28;20037;-84
2023/01/25 09:00:28;;;;;;;67.13;31.47;;;;;;;;;;5022462;28;20039;-83
2023/01/25 09:03:13;;;;;;;60.73;29.40;;;;;;;;;;5036493;28;20504;-83
2023/01/25 09:05:57;;;;;;;59.20;28.77;;;;;;;;;;5036175;28;20047;-83
2023/01/25 09:08:42;;;;;;;65.57;30.10;;;;;;;;;;5035959;28;20059;-84
2023/01/25 09:11:27;;;;;;;66.40;31.10;;;;;;;;;;5022633;28;20044;-83
2023/01/25 09:14:12;;;;;;;63.00;29.10;;;;;;;;;;5039941;28;20043;-83
2023/01/25 09:16:56;;;;;;;62.93;31.27;;;;;;;;;;5054434;28;20048;-83
2023/01/25 09:19:41;;;;;;;66.20;31.13;;;;;;;;;;5039972;28;20048;-87
2023/01/25 09:22:26;;;;;;;61.07;30.43;;;;;;;;;;5025832;28;20043;-83
2023/01/25 09:25:10;;;;;;;56.13;27.43;;;;;;;;;;5025862;28;20040;-84
2023/01/25 09:27:54;;;;;;;59.53;27.80;;;;;;;;;;5039252;28;20095;-83
2023/01/25 09:30:41;;;;;;;61.37;29.47;;;;;;;;;;5039872;28;20159;-84
2023/01/25 09:33:31;;;;;;;61.70;28.47;;;-0.10;99.90;;;;;;5025903;28;20039;-83
2023/01/25 09:36:16;;;;;;;58.40;28.13;;;;;;;;;;5054547;28;20124;-84
2023/01/25 09:39:00;;;;;;;58.60;26.27;;;;;;;;;;5054021;28;20036;-83
2023/01/25 09:42:03;;;;;;;56.43;27.50;;;-0.20;99.90;;;;;;5054379;28;20496;-87
2023/01/25 09:44:56;;;;;;;63.37;27.17;;;-0.10;99.90;;;;;;5040532;28;20454;-84
2023/01/25 09:47:56;;;;;;;56.13;26.50;;;-0.30;99.90;;;;;;5039466;28;20111;-83
2023/01/25 09:50:41;;;;;;;57.17;27.47;;;;;;;;;;5039212;28;20072;-85
2023/01/25 09:53:39;;;;;;;54.00;26.67;;;-0.90;99.90;;;;;;5039233;28;20098;-84
2023/01/25 09:56:26;;;;;;;61.90;28.27;;;-0.30;99.90;;;;;;5054463;28;20060;-83
2023/01/25 09:59:16;;;;;;;58.33;27.00;;;-0.30;99.90;;;;;;5053761;28;20175;-84
2023/01/25 10:02:33;;;;;;;61.23;27.33;;;-0.20;99.90;;;;;;5024691;28;20032;-84
2023/01/25 10:05:21;;;;;;;58.30;27.43;;;-0.30;99.90;;;;;;5035433;28;20040;-84
2023/01/25 10:08:32;;;;;;;58.67;27.73;;;-0.40;99.90;;;;;;5053664;28;20112;-83
2023/01/25 10:11:26;;;;;;;55.93;26.50;;;-0.10;99.90;;;;;;5038943;28;20075;-84
2023/01/25 10:14:18;;;;;;;54.50;25.73;;;-0.20;99.90;;;;;;5053577;28;20555;-84
2023/01/25 10:17:13;;;;;;;53.87;25.70;;;-0.20;99.90;;;;;;5033981;28;20056;-84
2023/01/25 10:20:23;;;;;;;55.33;27.53;;;-0.40;99.90;;;;;;5050259;28;20488;-84
2023/01/25 10:23:07;;;;;;;58.87;28.03;;;;;;;;;;5033096;28;20044;-84
2023/01/25 10:26:23;;;;;;;59.17;28.20;;;-0.30;99.90;;;;;;5035930;28;20044;-88
2023/01/25 10:29:17;;;;;;;64.43;28.33;;;0.20;99.90;;;;;;5038405;28;20116;-84
2023/01/25 10:32:16;;;;;;;54.95;25.90;;;-0.10;99.90;;;;;;5040902;28;20488;-85
2023/01/25 10:35:16;;;;;;;57.57;25.70;;;-0.20;99.90;;;;;;5049196;28;20076;-85
2023/01/25 10:38:30;;;;;;;56.50;27.93;;;-0.20;99.90;;;;;;5035438;28;20064;-86
2023/01/25 10:41:20;;;;;;;61.07;27.37;;;0.30;99.90;;;;;;5040142;28;20048;-84
2023/01/25 10:47:29;;;;;;;58.80;26.67;;;-0.30;99.90;;;;;;5034351;28;20556;-85
2023/01/25 10:50:45;;;;;;;60.07;26.90;;;0.00;99.90;;;;;;5034084;28;20064;-84
2023/01/25 10:53:43;;;;;;;55.87;25.90;;;-0.50;99.90;;;;;;5028949;28;20099;-84
2023/01/25 10:56:28;;;;;;;63.77;26.87;;;-0.20;99.90;;;;;;5047011;28;20059;-84
2023/01/25 10:59:18;;;;;;;58.83;25.37;;;-0.30;99.90;;;;;;5048329;28;20110;-84
2023/01/25 11:02:24;;;;;;;55.90;25.27;;;-0.10;99.90;;;;;;5038800;28;20080;-84
2023/01/25 11:05:18;;;;;;;60.50;24.93;;;-0.30;99.90;;;;;;5037362;28;20044;-84
2023/01/25 11:08:30;;;;;;;57.13;27.37;;;-0.10;99.90;;;;;;5037442;28;20440;-84
2023/01/25 11:11:30;;;;;;;58.30;25.10;;;-0.10;99.90;;;;;;5044298;28;20086;-85
2023/01/25 11:14:16;;;;;;;56.30;25.10;;;-0.10;99.90;;;;;;5040855;28;20055;-84
2023/01/25 11:17:03;;;;;;;63.37;27.37;;;-0.10;99.90;;;;;;5052252;28;20035;-85
2023/01/25 11:19:48;;;;;;;63.10;27.30;;;;;;;;;;5052910;28;20090;-84
2023/01/25 11:22:33;;;;;;;55.40;25.23;;;;;;;;;;5046738;28;20036;-84
2023/01/25 11:25:46;;;;;;;57.60;24.30;;;-0.10;99.90;;;;;;5032681;28;20111;-84
2023/01/25 11:28:31;;;;;;;57.83;24.93;;;;;;;;;;5032443;28;20595;-84
2023/01/25 11:31:19;;;;;;;64.70;25.83;;;-0.10;99.90;;;;;;5034675;28;20044;-85
2023/01/25 11:34:09;;;;;;;63.83;26.53;;;-0.10;99.90;;;;;;5049307;28;20452;-84
2023/01/25 11:36:53;;;;;;;61.60;26.67;;;;;;;;;;5052270;28;20184;-84
2023/01/25 11:39:38;;;;;;;65.10;27.70;;;;;;;;;;5043033;28;20087;-84
2023/01/25 11:42:37;;;;;;;62.23;26.43;;;-0.10;99.90;;;;;;5016992;28;20079;-84
2023/01/25 11:45:46;;;;;;;61.33;26.23;;;-0.40;99.90;;;;;;5039805;28;20703;-84
2023/01/25 11:48:56;;;;;;;59.93;25.27;;;-0.10;99.90;;;;;;5019046;28;20096;-85
2023/01/25 11:51:54;;;;;;;60.53;26.20;;;0.00;99.90;;;;;;5030676;28;20131;-84
2023/01/25 11:54:54;;;;;;;61.17;24.57;;;0.20;99.90;;;;;;5043243;28;20501;-84
2023/01/25 11:57:39;;;;;;;59.20;26.13;;;;;;;;;;5018145;28;20100;-84
2023/01/25 12:00:27;;;;;;;66.13;25.80;;;0.60;99.90;;;;;;5039628;28;20037;-84
2023/01/25 12:03:29;;;;;;;61.07;26.37;;;-0.10;99.90;;;;;;5022836;28;20405;-84
2023/01/25 12:06:58;;;;;;;59.90;25.40;;;-0.40;99.90;;;;;;5037650;28;20083;-84
2023/01/25 12:10:22;;;;;;;58.63;26.20;;;0.10;99.90;;;;;;5024973;28;20071;-84
2023/01/25 12:13:32;;;;;;;64.20;25.90;;;0.10;99.90;;;;;;5012250;28;20060;-86
2023/01/25 12:16:33;;;;;;;57.80;23.50;;;0.50;99.90;;;;;;5029788;28;20076;-83
2023/01/25 12:19:39;;;;;;;60.33;25.27;;;-0.60;99.90;;;;;;5028443;28;20064;-82
2023/01/25 12:22:30;;;;;;;57.37;24.90;;;0.40;99.90;;;;;;5021590;28;20492;-83
2023/01/25 12:25:35;;;;;;;69.17;28.17;;;0.50;99.90;;;;;;5031780;28;20115;-83
2023/01/25 12:28:26;;;;;;;54.33;24.27;;;0.20;99.90;;;;;;5044748;28;20033;-83
2023/01/25 12:31:17;;;;;;;60.17;25.40;;;0.20;99.90;;;;;;5021289;28;20056;-83
2023/01/25 12:34:07;;;;;;;62.20;23.87;;;0.30;99.90;;;;;;5042442;28;20044;-85
2023/01/25 12:36:53;;;;;;;63.13;25.73;;;0.30;99.90;;;;;;5024772;28;20441;-84
2023/01/25 12:39:44;;;;;;;69.57;26.97;;;0.30;99.90;;;;;;5043403;28;20056;-83
2023/01/25 12:42:35;;;;;;;64.07;24.83;;;0.40;99.90;;;;;;5023084;28;20040;-85
2023/01/25 12:45:27;;;;;;;60.27;23.57;;;0.40;99.90;;;;;;5044046;28;20036;-84
2023/01/25 12:48:12;;;;;;;63.27;25.00;;;;;;;;;;5043355;28;20098;-85
2023/01/25 12:50:58;;;;;;;64.07;26.73;;;0.40;99.90;;;;;;5055390;28;20083;-83
2023/01/25 12:53:48;;;;;;;67.40;25.87;;;0.40;99.90;;;;;;5029163;28;20509;-83
2023/01/25 12:56:43;;;;;;;66.23;25.20;;;0.40;99.90;;;;;;5026769;28;20401;-83
2023/01/25 12:59:35;;;;;;;69.60;26.50;;;0.40;99.90;;;;;;5040669;28;20096;-83
2023/01/25 13:02:50;;;;;;;66.47;28.40;;;0.60;99.90;;;;;;5028828;28;20071;-83
2023/01/25 13:05:49;;;;;;;63.77;25.10;;;0.70;99.90;;;;;;5042106;28;20120;-83
2023/01/25 13:08:55;;;;;;;61.47;24.23;;;0.10;99.90;;;;;;5039429;28;20043;-84
2023/01/25 13:11:44;;;;;;;59.60;24.00;;;0.40;99.90;;;;;;5039922;28;20040;-83
2023/01/25 13:14:29;;;;;;;63.20;24.73;;;;;;;;;;5054688;28;20051;-83
2023/01/25 13:17:31;;;;;;;64.63;23.97;;;0.40;99.90;;;;;;5039815;28;20032;-88
2023/01/25 13:20:40;;;;;;;64.60;24.57;;;0.40;99.90;;;;;;5054496;28;20044;-88
2023/01/25 13:23:42;;;;;;;62.33;24.50;;;0.40;99.90;;;;;;5054422;28;20546;-83
2023/01/25 13:26:27;;;;;;;55.90;22.90;;;;;;;;;;5034469;28;20044;-84
2023/01/25 13:29:41;;;;;;;57.23;24.83;;;0.40;99.90;;;;;;5039159;28;20063;-83
2023/01/25 13:32:31;;;;;;;57.53;23.35;;;0.40;99.90;;;;;;5054100;28;20047;-83
2023/01/25 13:35:43;;;;;;;55.03;23.40;;;0.40;99.90;;;;;;5054873;28;20054;-88
2023/01/25 13:38:32;;;;;;;55.37;20.20;;;0.40;99.90;;;;;;5031197;28;20444;-83
2023/01/25 13:41:17;;;;;;;55.80;21.60;;;;;;;;;;5054590;28;20385;-89
2023/01/25 13:44:27;;;;;;;51.97;20.93;;;0.30;99.90;;;;;;5054686;28;20564;-83
2023/01/25 13:47:24;;;;;;;52.63;20.90;;;0.40;99.90;;;;;;5054652;28;20513;-83
2023/01/25 13:50:28;;;;;;;55.13;21.90;;;0.40;99.90;;;;;;5060954;28;20040;-83
2023/01/25 13:53:15;;;;;;;58.27;20.53;;;0.40;99.90;;;;;;5050092;28;20063;-83
2023/01/25 13:55:59;;;;;;;57.07;21.90;;;;;;;;;;5029959;28;20067;-83
2023/01/25 13:58:46;;;;;;;58.00;20.63;;;0.30;99.90;;;;;;5030134;28;20036;-83
2023/01/25 14:01:34;;;;;;;56.73;20.77;;;0.40;99.90;;;;;;5025262;28;20390;-84
2023/01/25 14:04:18;;;;;;;59.03;21.83;;;;;;;;;;5022837;28;20044;-84
2023/01/25 14:07:08;;;;;;;56.73;22.37;;;;;;;;;;5007782;28;20040;-83
2023/01/25 14:09:53;;;;;;;60.10;23.23;;;;;;;;;;5022714;28;20441;-84
2023/01/25 14:12:42;;;;;;;68.10;24.53;;;0.30;99.90;;;;;;5027399;28;20087;-84
2023/01/25 14:15:29;;;;;;;67.27;24.17;;;0.40;99.90;;;;;;5053185;28;20147;-84
2023/01/25 14:18:17;;;;;;;61.97;23.70;;;0.40;99.90;;;;;;5043799;28;20059;-84
2023/01/25 14:21:16;;;;;;;64.57;26.90;;;0.40;99.90;;;;;;5040667;28;20043;-84
2023/01/25 14:24:10;;;;;;;64.03;24.63;;;0.40;99.90;;;;;;5039827;28;20533;-83
2023/01/25 14:26:54;;;;;;;;;;;0.40;99.90;;;;;;5044015;28;20059;-83
2023/01/25 14:29:39;;;;;;;65.20;23.55;;;;;;;;;;5046819;28;20020;-84
2023/01/25 14:32:26;;;;;;;65.33;25.33;;;0.30;99.90;;;;;;5041528;28;20074;-87
2023/01/25 14:35:28;;;;;;;73.77;26.60;;;0.20;99.90;;;;;;5053600;28;20072;-83
2023/01/25 14:38:42;;;;;;;66.63;25.93;;;-0.30;99.90;;;;;;5049349;28;20079;-84
2023/01/25 14:41:28;;;;;;;72.23;25.10;;;0.30;99.90;;;;;;5028741;28;20139;-89
2023/01/25 14:44:14;;;;;;;70.87;26.00;;;0.30;99.90;;;;;;5043230;28;20452;-84
2023/01/25 14:47:19;;;;;;;65.57;27.27;;;0.30;99.90;;;;;;5020476;28;20044;-82
2023/01/25 14:50:32;;;;;;;78.53;27.20;;;0.60;99.90;;;;;;5047274;28;20032;-83
2023/01/25 14:53:22;;;;;;;71.57;26.07;;;0.30;99.90;;;;;;5031572;28;20064;-83
2023/01/25 14:56:45;;;;;;;66.63;25.97;;;0.30;99.90;;;;;;5034743;28;20052;-83
2023/01/25 14:59:42;;;;;;;71.10;27.00;;;0.30;99.90;;;;;;5042137;28;20120;-85
2023/01/25 15:02:49;;;;;;;72.87;27.07;;;0.20;99.90;;;;;;5041597;28;20040;-85
2023/01/25 15:05:36;;;;;;;71.30;26.13;;;0.10;99.90;;;;;;5037550;28;20035;-83
2023/01/25 15:08:28;;;;;;;79.77;29.73;;;;;;;;;;5038847;28;20044;-83
2023/01/25 15:11:47;;;;;;;74.27;27.73;;;0.10;99.90;;;;;;5023323;28;20113;-83
2023/01/25 15:14:32;;;;;;;71.37;27.43;;;;;;;;;;5039163;28;20052;-85
2023/01/25 15:17:39;;;;;;;71.57;27.97;;;0.70;99.90;;;;;;5052412;28;20044;-84
2023/01/25 15:20:37;;;;;;;75.83;25.97;;;0.50;99.90;;;;;;5039643;28;20056;-84
2023/01/25 15:23:26;;;;;;;69.53;25.77;;;0.40;99.90;;;;;;5023002;28;20040;-83
2023/01/25 15:26:19;;;;;;;72.97;26.77;;;0.00;99.90;;;;;;5041659;28;20048;-84
2023/01/25 15:29:15;;;;;;;71.27;27.97;;;0.00;99.90;;;;;;5052478;28;20501;-83
2023/01/25 15:32:00;;;;;;;76.40;27.80;;;;;;;;;;5024290;28;20044;-86
2023/01/25 15:34:45;;;;;;;70.70;24.13;;;;;;;;;;5040765;28;20512;-87
2023/01/25 15:37:29;;;;;;;72.47;26.10;;;;;;;;;;5021629;28;20064;-84
2023/01/25 15:40:14;;;;;;;68.97;24.93;;;-0.20;99.90;;;;;;5044241;28;20048;-84
2023/01/25 15:42:59;;;;;;;67.77;26.47;;;;;;;;;;5017387;28;20045;-87
2023/01/25 15:45:46;;;;;;;73.13;27.03;;;-0.10;99.90;;;;;;5031538;28;20071;-84